createdAt,value
2023-02-11T00:00:05.964Z,0.17
2023-02-11T00:00:18.239Z,0.18
2023-02-11T00:00:30.210Z,0.19
2023-02-11T00:00:42.771Z,0.21
2023-02-11T00:00:54.702Z,0.19
2023-02-11T00:01:11.918Z,0.18
2023-02-11T00:01:29.716Z,0.18
2023-02-11T00:01:41.701Z,0.17
2023-02-11T00:01:53.707Z,0.16
2023-02-11T00:02:06.772Z,0.15
2023-02-11T00:02:18.774Z,0.14
2023-02-11T00:02:32.430Z,0.13
2023-02-11T00:02:46.846Z,0.13
2023-02-11T00:02:59.930Z,0.15
2023-02-11T00:03:14.551Z,0.13
2023-02-11T00:03:26.720Z,0.15
2023-02-11T00:03:38.897Z,0.15
2023-02-11T00:03:51.450Z,0.15
2023-02-11T00:04:04.655Z,0.15
2023-02-11T00:04:16.874Z,0.14
2023-02-11T00:04:28.817Z,0.14
2023-02-11T00:04:40.728Z,0.11
2023-02-11T00:04:52.788Z,0.14
2023-02-11T00:05:05.359Z,0.13
2023-02-11T00:05:19.905Z,0.15
2023-02-11T00:05:31.895Z,0.14
2023-02-11T00:05:43.895Z,0.15
2023-02-11T00:06:04.187Z,0.15
2023-02-11T00:06:16.702Z,0.16
2023-02-11T00:06:30.563Z,0.17
2023-02-11T00:06:42.899Z,0.16
2023-02-11T00:06:55.354Z,0.16
2023-02-11T00:07:07.535Z,0.16
2023-02-11T00:07:19.524Z,0.17
2023-02-11T00:07:32.569Z,0.17
2023-02-11T00:07:44.710Z,0.16
2023-02-11T00:07:57.131Z,0.18
2023-02-11T00:08:09.112Z,0.18
2023-02-11T00:08:21.080Z,0.17
2023-02-11T00:08:36.277Z,0.15
2023-02-11T00:08:48.286Z,0.14
2023-02-11T00:09:00.889Z,0.12
2023-02-11T00:09:12.840Z,0.05
2023-02-11T00:09:24.766Z,0.04
2023-02-11T00:09:39.152Z,0.04
2023-02-11T00:09:51.248Z,0.01
2023-02-11T00:10:07.773Z,-0.04
2023-02-11T00:10:19.674Z,-0.03
2023-02-11T00:10:31.676Z,-0.02
2023-02-11T00:10:46.294Z,-0.01
2023-02-11T00:10:58.828Z,0.02
2023-02-11T00:11:18.757Z,0.03
2023-02-11T00:11:30.852Z,0.03
2023-02-11T00:11:42.874Z,0.05
2023-02-11T00:11:54.805Z,0.06
2023-02-11T00:12:06.823Z,0.06
2023-02-11T00:12:19.593Z,0.07
2023-02-11T00:12:31.622Z,0.08
2023-02-11T00:12:43.653Z,0.09
2023-02-11T00:12:55.960Z,0.07
2023-02-11T00:13:07.904Z,0.05
2023-02-11T00:13:19.891Z,0.04
2023-02-11T00:13:31.883Z,0.05
2023-02-11T00:13:45.055Z,0.06
2023-02-11T00:14:02.299Z,0.06
2023-02-11T00:14:14.291Z,0.05
2023-02-11T00:14:26.699Z,0.07
2023-02-11T00:14:38.633Z,0.05
2023-02-11T00:14:53.142Z,0.04
2023-02-11T00:15:07.636Z,0.05
2023-02-11T00:15:21.075Z,0.08
2023-02-11T00:15:33.016Z,0.08
2023-02-11T00:15:44.972Z,0.09
2023-02-11T00:15:57.166Z,0.11
2023-02-11T00:16:12.373Z,0.10
2023-02-11T00:16:24.391Z,0.11
2023-02-11T00:16:36.532Z,0.11
2023-02-11T00:16:48.529Z,0.11
2023-02-11T00:17:00.648Z,0.11
2023-02-11T00:17:12.840Z,0.11
2023-02-11T00:17:24.818Z,0.13
2023-02-11T00:17:37.036Z,0.13
2023-02-11T00:17:48.994Z,0.11
2023-02-11T00:18:00.952Z,0.11
2023-02-11T00:18:12.896Z,0.13
2023-02-11T00:18:24.812Z,0.10
2023-02-11T00:18:38.345Z,0.11
2023-02-11T00:18:52.885Z,0.10
2023-02-11T00:19:06.578Z,0.07
2023-02-11T00:19:18.586Z,0.08
2023-02-11T00:19:30.656Z,0.07
2023-02-11T00:19:42.658Z,0.03
2023-02-11T00:19:54.690Z,0.05
2023-02-11T00:20:08.305Z,0.05
2023-02-11T00:20:20.328Z,0.06
2023-02-11T00:20:32.265Z,0.07
2023-02-11T00:20:44.355Z,0.07
2023-02-11T00:20:56.328Z,0.04
2023-02-11T00:21:16.209Z,0.03
2023-02-11T00:21:29.309Z,0.02
2023-02-11T00:21:41.392Z,-0.02
2023-02-11T00:21:53.471Z,-0.02
2023-02-11T00:22:05.938Z,-0.07
2023-02-11T00:22:18.554Z,-0.09
2023-02-11T00:22:30.796Z,-0.18
2023-02-11T00:22:42.786Z,-0.23
2023-02-11T00:22:54.725Z,-0.21
2023-02-11T00:23:06.863Z,-0.20
2023-02-11T00:23:19.038Z,-0.19
2023-02-11T00:23:31.091Z,-0.17
2023-02-11T00:23:43.667Z,-0.14
2023-02-11T00:23:57.169Z,-0.12
2023-02-11T00:24:09.154Z,-0.12
2023-02-11T00:24:21.088Z,-0.12
2023-02-11T00:24:33.113Z,-0.13
2023-02-11T00:24:45.045Z,-0.11
2023-02-11T00:24:57.156Z,-0.11
2023-02-11T00:25:09.205Z,-0.12
2023-02-11T00:25:21.260Z,-0.12
2023-02-11T00:25:33.316Z,-0.12
2023-02-11T00:25:45.959Z,-0.09
2023-02-11T00:25:57.874Z,-0.10
2023-02-11T00:26:19.021Z,-0.11
2023-02-11T00:26:33.958Z,-0.09
2023-02-11T00:26:45.881Z,-0.08
2023-02-11T00:26:57.935Z,-0.08
2023-02-11T00:27:09.901Z,-0.08
2023-02-11T00:27:21.830Z,-0.08
2023-02-11T00:27:33.834Z,-0.08
2023-02-11T00:27:45.807Z,-0.09
2023-02-11T00:27:57.789Z,-0.09
2023-02-11T00:28:10.417Z,-0.09
2023-02-11T00:28:22.366Z,-0.08
2023-02-11T00:28:34.405Z,-0.06
2023-02-11T00:28:47.090Z,-0.06
2023-02-11T00:29:00.705Z,-0.04
2023-02-11T00:29:12.602Z,-0.03
2023-02-11T00:29:24.658Z,-0.02
2023-02-11T00:29:37.662Z,-0.03
2023-02-11T00:29:49.626Z,-0.04
2023-02-11T00:30:02.563Z,-0.04
2023-02-11T00:30:14.546Z,-0.04
2023-02-11T00:30:26.572Z,-0.02
2023-02-11T00:30:38.769Z,-0.01
2023-02-11T00:31:01.618Z,0.02
2023-02-11T00:31:15.498Z,-0.02
2023-02-11T00:31:29.559Z,0.01
2023-02-11T00:31:41.837Z,-0.01
2023-02-11T00:31:54.031Z,0.01
2023-02-11T00:32:06.552Z,0.01
2023-02-11T00:32:18.580Z,0.01
2023-02-11T00:32:30.544Z,0.03
2023-02-11T00:32:42.605Z,0.03
2023-02-11T00:32:54.682Z,0.04
2023-02-11T00:33:09.741Z,0.05
2023-02-11T00:33:22.216Z,0.04
2023-02-11T00:33:34.169Z,0.04
2023-02-11T00:33:46.436Z,0.03
2023-02-11T00:33:58.419Z,0.03
2023-02-11T00:34:10.372Z,0.04
2023-02-11T00:34:22.296Z,0.04
2023-02-11T00:34:36.054Z,0.04
2023-02-11T00:34:48.124Z,0.03
2023-02-11T00:35:00.059Z,0.04
2023-02-11T00:35:12.083Z,0.06
2023-02-11T00:35:24.002Z,0.05
2023-02-11T00:35:38.573Z,0.07
2023-02-11T00:35:50.820Z,0.06
2023-02-11T00:36:08.367Z,0.05
2023-02-11T00:36:25.968Z,0.04
2023-02-11T00:36:37.877Z,0.05
2023-02-11T00:36:52.433Z,0.04
2023-02-11T00:37:05.352Z,0.04
2023-02-11T00:37:17.272Z,0.02
2023-02-11T00:37:29.295Z,0.00
2023-02-11T00:37:41.276Z,-0.04
2023-02-11T00:37:54.302Z,-0.04
2023-02-11T00:38:07.424Z,-0.09
2023-02-11T00:38:19.461Z,-0.10
2023-02-11T00:38:31.392Z,-0.11
2023-02-11T00:38:44.343Z,-0.09
2023-02-11T00:38:57.373Z,-0.09
2023-02-11T00:39:09.384Z,-0.08
2023-02-11T00:39:21.352Z,-0.07
2023-02-11T00:39:33.311Z,-0.07
2023-02-11T00:39:45.220Z,-0.06
2023-02-11T00:39:57.175Z,-0.05
2023-02-11T00:40:09.721Z,-0.05
2023-02-11T00:40:22.554Z,-0.04
2023-02-11T00:40:34.515Z,-0.04
2023-02-11T00:40:46.441Z,-0.15
2023-02-11T00:40:58.427Z,-0.18
2023-02-11T00:41:11.653Z,-0.21
2023-02-11T00:41:23.738Z,-0.25
2023-02-11T00:41:35.872Z,-0.28
2023-02-11T00:41:47.852Z,-0.30
2023-02-11T00:41:59.806Z,-0.33
2023-02-11T00:42:15.035Z,-0.32
2023-02-11T00:42:26.990Z,-0.32
2023-02-11T00:42:38.927Z,-0.31
2023-02-11T00:42:50.867Z,-0.32
2023-02-11T00:43:02.876Z,-0.33
2023-02-11T00:43:14.777Z,-0.38
2023-02-11T00:43:26.789Z,-0.41
2023-02-11T00:43:39.339Z,-0.41
2023-02-11T00:43:54.397Z,-0.48
2023-02-11T00:44:06.308Z,-0.49
2023-02-11T00:44:21.349Z,-0.57
2023-02-11T00:44:33.256Z,-0.58
2023-02-11T00:44:45.194Z,-0.59
2023-02-11T00:44:57.425Z,-0.59
2023-02-11T00:45:09.899Z,-0.62
2023-02-11T00:45:21.918Z,-0.65
2023-02-11T00:45:33.816Z,-0.70
2023-02-11T00:45:45.868Z,-0.73
2023-02-11T00:45:57.833Z,-0.75
2023-02-11T00:46:10.066Z,-0.77
2023-02-11T00:46:22.677Z,-0.81
2023-02-11T00:46:35.045Z,-0.84
2023-02-11T00:46:47.139Z,-0.88
2023-02-11T00:46:59.085Z,-0.93
2023-02-11T00:47:11.197Z,-0.94
2023-02-11T00:47:23.415Z,-0.98
2023-02-11T00:47:35.879Z,-0.99
2023-02-11T00:47:48.087Z,-1.05
2023-02-11T00:48:00.010Z,-1.10
2023-02-11T00:48:11.909Z,-1.18
2023-02-11T00:48:23.834Z,-1.16
2023-02-11T00:48:36.071Z,-1.23
2023-02-11T00:48:48.865Z,-1.24
2023-02-11T00:49:00.818Z,-1.27
2023-02-11T00:49:12.745Z,-1.34
2023-02-11T00:49:25.299Z,-1.35
2023-02-11T00:49:39.572Z,-1.35
2023-02-11T00:49:51.510Z,-1.36
2023-02-11T00:50:05.479Z,-1.39
2023-02-11T00:50:17.438Z,-1.37
2023-02-11T00:50:29.388Z,-1.39
2023-02-11T00:50:43.767Z,-1.41
2023-02-11T00:50:55.685Z,-1.46
2023-02-11T00:51:08.241Z,-1.49
2023-02-11T00:51:23.202Z,-1.48
2023-02-11T00:51:35.202Z,-1.46
2023-02-11T00:51:47.197Z,-1.48
2023-02-11T00:51:59.151Z,-1.46
2023-02-11T00:52:11.149Z,-1.47
2023-02-11T00:52:23.082Z,-1.49
2023-02-11T00:52:35.303Z,-1.49
2023-02-11T00:52:47.233Z,-1.51
2023-02-11T00:52:59.257Z,-1.53
2023-02-11T00:53:11.241Z,-1.52
2023-02-11T00:53:23.151Z,-1.55
2023-02-11T00:53:35.837Z,-1.52
2023-02-11T00:53:47.765Z,-1.49
2023-02-11T00:53:59.747Z,-1.48
2023-02-11T00:54:11.758Z,-1.45
2023-02-11T00:54:23.823Z,-1.46
2023-02-11T00:54:35.804Z,-1.45
2023-02-11T00:54:47.746Z,-1.41
2023-02-11T00:54:59.762Z,-1.40
2023-02-11T00:55:11.770Z,-1.38
2023-02-11T00:55:23.756Z,-1.37
2023-02-11T00:55:35.770Z,-1.32
2023-02-11T00:55:47.909Z,-1.27
2023-02-11T00:56:01.174Z,-1.28
2023-02-11T00:56:13.198Z,-1.22
2023-02-11T00:56:25.290Z,-1.21
2023-02-11T00:56:37.328Z,-1.15
2023-02-11T00:56:49.838Z,-1.11
2023-02-11T00:57:01.875Z,-1.08
2023-02-11T00:57:13.853Z,-1.06
2023-02-11T00:57:25.875Z,-1.02
2023-02-11T00:57:37.897Z,-0.98
2023-02-11T00:57:49.953Z,-0.98
2023-02-11T00:58:02.009Z,-0.96
2023-02-11T00:58:14.188Z,-0.94
2023-02-11T00:58:26.352Z,-0.91
2023-02-11T00:58:38.531Z,-0.90
2023-02-11T00:58:50.797Z,-0.88
2023-02-11T00:59:02.729Z,-0.84
2023-02-11T00:59:14.737Z,-0.81
2023-02-11T00:59:27.009Z,-0.81
2023-02-11T00:59:38.977Z,-0.88
2023-02-11T00:59:50.926Z,-0.90
2023-02-11T01:00:05.104Z,-0.94
2023-02-11T01:00:17.293Z,-0.99
2023-02-11T01:00:29.274Z,-0.98
2023-02-11T01:00:41.209Z,-0.93
2023-02-11T01:00:54.900Z,-0.89
2023-02-11T01:01:07.698Z,-0.93
2023-02-11T01:01:19.847Z,-1.02
2023-02-11T01:01:31.945Z,-0.95
2023-02-11T01:01:43.854Z,-0.94
2023-02-11T01:01:55.889Z,-0.99
2023-02-11T01:02:07.792Z,-0.99
2023-02-11T01:02:19.715Z,-1.01
2023-02-11T01:02:31.768Z,-1.07
2023-02-11T01:02:43.716Z,-0.98
2023-02-11T01:02:55.951Z,-0.92
2023-02-11T01:03:07.900Z,-0.84
2023-02-11T01:03:19.870Z,-0.84
2023-02-11T01:03:31.878Z,-0.88
2023-02-11T01:03:43.940Z,-0.95
2023-02-11T01:03:55.881Z,-1.03
2023-02-11T01:04:07.835Z,-0.97
2023-02-11T01:04:19.798Z,-0.93
2023-02-11T01:04:31.734Z,-0.97
2023-02-11T01:04:43.637Z,-0.99
2023-02-11T01:04:55.580Z,-1.03
2023-02-11T01:05:08.177Z,-0.97
2023-02-11T01:05:21.386Z,-0.94
2023-02-11T01:05:33.585Z,-0.91
2023-02-11T01:05:45.629Z,-0.91
2023-02-11T01:05:57.545Z,-0.86
2023-02-11T01:06:10.135Z,-0.88
2023-02-11T01:06:22.122Z,-0.87
2023-02-11T01:06:34.118Z,-0.86
2023-02-11T01:06:46.069Z,-0.89
2023-02-11T01:06:57.994Z,-0.87
2023-02-11T01:07:09.931Z,-0.86
2023-02-11T01:07:21.901Z,-0.81
2023-02-11T01:07:33.869Z,-0.77
2023-02-11T01:07:46.039Z,-0.73
2023-02-11T01:07:58.493Z,-0.75
2023-02-11T01:08:10.484Z,-0.77
2023-02-11T01:08:22.842Z,-0.77
2023-02-11T01:08:34.925Z,-0.77
2023-02-11T01:08:46.867Z,-0.84
2023-02-11T01:08:58.853Z,-0.89
2023-02-11T01:09:10.818Z,-0.89
2023-02-11T01:09:22.812Z,-0.88
2023-02-11T01:09:34.741Z,-0.90
2023-02-11T01:09:46.665Z,-0.94
2023-02-11T01:09:58.639Z,-0.93
2023-02-11T01:10:11.643Z,-0.97
2023-02-11T01:10:23.657Z,-1.00
2023-02-11T01:10:35.621Z,-1.00
2023-02-11T01:11:12.047Z,-1.01
2023-02-11T01:11:24.162Z,-1.00
2023-02-11T01:11:36.293Z,-1.02
2023-02-11T01:11:48.325Z,-0.99
2023-02-11T01:12:00.442Z,-1.02
2023-02-11T01:12:12.432Z,-1.02
2023-02-11T01:12:24.851Z,-1.00
2023-02-11T01:12:36.984Z,-0.97
2023-02-11T01:12:48.924Z,-0.96
2023-02-11T01:13:01.722Z,-0.93
2023-02-11T01:13:13.718Z,-0.91
2023-02-11T01:13:27.110Z,-1.01
2023-02-11T01:13:39.283Z,-0.97
2023-02-11T01:13:51.243Z,-1.00
2023-02-11T01:14:03.574Z,-0.98
2023-02-11T01:14:15.630Z,-1.02
2023-02-11T01:14:27.620Z,-1.02
2023-02-11T01:14:39.549Z,-1.09
2023-02-11T01:14:51.935Z,-1.17
2023-02-11T01:15:06.378Z,-1.23
2023-02-11T01:15:19.806Z,-1.27
2023-02-11T01:15:32.288Z,-1.25
2023-02-11T01:15:44.285Z,-1.20
2023-02-11T01:15:57.381Z,-1.15
2023-02-11T01:16:10.810Z,-1.13
2023-02-11T01:16:22.867Z,-1.11
2023-02-11T01:16:34.857Z,-1.09
2023-02-11T01:16:46.780Z,-1.09
2023-02-11T01:16:58.691Z,-1.06
2023-02-11T01:17:10.713Z,-1.06
2023-02-11T01:17:23.277Z,-1.04
2023-02-11T01:17:36.113Z,-1.06
2023-02-11T01:17:49.985Z,-1.03
2023-02-11T01:18:01.938Z,-1.00
2023-02-11T01:18:13.893Z,-1.01
2023-02-11T01:18:27.060Z,-0.98
2023-02-11T01:18:39.477Z,-0.98
2023-02-11T01:18:51.432Z,-0.95
2023-02-11T01:19:03.458Z,-0.87
2023-02-11T01:19:15.368Z,-0.85
2023-02-11T01:19:27.255Z,-0.81
2023-02-11T01:19:39.441Z,-0.76
2023-02-11T01:19:51.400Z,-0.73
2023-02-11T01:20:06.404Z,-0.67
2023-02-11T01:20:22.399Z,-0.62
2023-02-11T01:20:34.373Z,-0.58
2023-02-11T01:20:46.462Z,-0.55
2023-02-11T01:20:58.402Z,-0.49
2023-02-11T01:21:11.005Z,-0.46
2023-02-11T01:21:22.994Z,-0.44
2023-02-11T01:21:35.037Z,-0.37
2023-02-11T01:21:46.970Z,-0.35
2023-02-11T01:21:58.984Z,-0.31
2023-02-11T01:22:10.967Z,-0.28
2023-02-11T01:22:22.955Z,-0.24
2023-02-11T01:22:37.334Z,-0.22
2023-02-11T01:22:49.295Z,-0.17
2023-02-11T01:23:01.199Z,-0.15
2023-02-11T01:23:13.957Z,-0.14
2023-02-11T01:23:26.226Z,-0.11
2023-02-11T01:23:38.186Z,-0.08
2023-02-11T01:23:50.149Z,-0.06
2023-02-11T01:24:02.102Z,-0.07
2023-02-11T01:24:14.124Z,-0.08
2023-02-11T01:24:26.053Z,-0.05
2023-02-11T01:24:38.054Z,-0.10
2023-02-11T01:24:49.946Z,-0.16
2023-02-11T01:25:01.838Z,-0.18
2023-02-11T01:25:13.801Z,-0.20
2023-02-11T01:25:25.738Z,-0.17
2023-02-11T01:25:37.654Z,-0.16
2023-02-11T01:25:52.812Z,-0.11
2023-02-11T01:26:05.453Z,-0.21
2023-02-11T01:26:17.381Z,-0.29
2023-02-11T01:26:29.411Z,-0.27
2023-02-11T01:26:41.385Z,-0.32
2023-02-11T01:26:53.332Z,-0.31
2023-02-11T01:27:05.369Z,-0.36
2023-02-11T01:27:17.364Z,-0.32
2023-02-11T01:27:29.286Z,-0.34
2023-02-11T01:27:41.392Z,-0.54
2023-02-11T01:27:53.348Z,-0.53
2023-02-11T01:28:05.652Z,-0.52
2023-02-11T01:28:22.054Z,-0.48
2023-02-11T01:28:34.109Z,-0.41
2023-02-11T01:28:46.124Z,-0.38
2023-02-11T01:29:00.029Z,-0.35
2023-02-11T01:29:12.014Z,-0.32
2023-02-11T01:29:24.139Z,-0.41
2023-02-11T01:29:36.095Z,-0.52
2023-02-11T01:29:48.007Z,-0.53
2023-02-11T01:30:00.201Z,-0.47
2023-02-11T01:30:13.967Z,-0.45
2023-02-11T01:30:26.077Z,-0.49
2023-02-11T01:30:37.987Z,-0.45
2023-02-11T01:30:50.621Z,-0.40
2023-02-11T01:31:03.424Z,-0.34
2023-02-11T01:31:15.488Z,-0.39
2023-02-11T01:31:27.717Z,-0.52
2023-02-11T01:31:39.826Z,-0.51
2023-02-11T01:31:52.627Z,-0.56
2023-02-11T01:32:04.818Z,-0.58
2023-02-11T01:32:16.861Z,-0.53
2023-02-11T01:32:28.834Z,-0.50
2023-02-11T01:32:40.889Z,-0.46
2023-02-11T01:32:52.837Z,-0.44
2023-02-11T01:33:04.754Z,-0.47
2023-02-11T01:33:17.176Z,-0.37
2023-02-11T01:33:29.477Z,-0.35
2023-02-11T01:33:41.788Z,-0.32
2023-02-11T01:33:53.706Z,-0.30
2023-02-11T01:34:06.696Z,-0.27
2023-02-11T01:34:18.647Z,-0.27
2023-02-11T01:34:30.774Z,-0.21
2023-02-11T01:34:42.681Z,-0.23
2023-02-11T01:34:54.959Z,-0.21
2023-02-11T01:35:07.489Z,-0.16
2023-02-11T01:35:19.452Z,-0.15
2023-02-11T01:35:31.402Z,-0.14
2023-02-11T01:35:44.579Z,-0.13
2023-02-11T01:36:00.575Z,-0.07
2023-02-11T01:36:13.056Z,-0.04
2023-02-11T01:36:25.100Z,-0.01
2023-02-11T01:36:37.322Z,-0.01
2023-02-11T01:36:49.279Z,-0.03
2023-02-11T01:37:01.240Z,-0.02
2023-02-11T01:37:13.227Z,0.02
2023-02-11T01:37:26.115Z,0.05
2023-02-11T01:37:38.077Z,0.09
2023-02-11T01:37:49.986Z,0.12
2023-02-11T01:38:02.079Z,0.17
2023-02-11T01:38:17.502Z,0.21
2023-02-11T01:38:29.798Z,0.23
2023-02-11T01:38:41.851Z,0.26
2023-02-11T01:38:53.752Z,0.30
2023-02-11T01:39:05.726Z,0.32
2023-02-11T01:39:17.763Z,0.35
2023-02-11T01:39:33.227Z,0.37
2023-02-11T01:39:45.179Z,0.39
2023-02-11T01:39:57.110Z,0.43
2023-02-11T01:40:14.155Z,0.45
2023-02-11T01:40:26.112Z,0.46
2023-02-11T01:40:38.033Z,0.48
2023-02-11T01:40:52.976Z,0.48
2023-02-11T01:41:10.857Z,0.46
2023-02-11T01:41:22.773Z,0.48
2023-02-11T01:41:35.805Z,0.50
2023-02-11T01:41:47.745Z,0.48
2023-02-11T01:41:59.656Z,0.46
2023-02-11T01:42:16.089Z,0.43
2023-02-11T01:42:28.690Z,0.42
2023-02-11T01:42:41.172Z,0.39
2023-02-11T01:42:53.082Z,0.39
2023-02-11T01:43:05.357Z,0.36
2023-02-11T01:43:17.752Z,0.34
2023-02-11T01:43:34.506Z,0.34
2023-02-11T01:43:49.280Z,0.32
2023-02-11T01:44:22.815Z,0.26
2023-02-11T01:44:38.241Z,0.21
2023-02-11T01:44:52.289Z,0.19
2023-02-11T01:45:42.493Z,0.14
2023-02-11T01:46:17.851Z,0.23
2023-02-11T01:46:36.211Z,0.21
2023-02-11T01:46:48.333Z,0.26
2023-02-11T01:47:01.343Z,0.25
2023-02-11T01:47:13.306Z,0.31
2023-02-11T01:47:25.377Z,0.33
2023-02-11T01:47:37.299Z,0.32
2023-02-11T01:47:49.181Z,0.26
2023-02-11T01:48:02.417Z,0.29
2023-02-11T01:48:22.578Z,0.35
2023-02-11T01:48:38.638Z,0.37
2023-02-11T01:48:55.542Z,0.41
2023-02-11T01:49:12.405Z,0.45
2023-02-11T01:49:38.476Z,0.44
2023-02-11T01:49:57.356Z,0.50
2023-02-11T01:50:09.482Z,0.52
2023-02-11T01:50:21.410Z,0.50
2023-02-11T01:50:34.098Z,0.57
2023-02-11T01:50:50.495Z,0.65
2023-02-11T01:51:21.226Z,0.75
2023-02-11T01:51:39.149Z,0.84
2023-02-11T01:51:53.750Z,0.88
2023-02-11T01:52:30.423Z,0.97
2023-02-11T01:52:43.548Z,0.96
2023-02-11T01:53:15.566Z,1.00
2023-02-11T01:53:51.033Z,1.08
2023-02-11T01:54:24.275Z,1.17
2023-02-11T01:55:02.784Z,1.13
2023-02-11T01:55:33.595Z,1.13
2023-02-11T01:56:04.376Z,1.30
2023-02-11T01:56:36.684Z,1.30
2023-02-11T01:57:10.632Z,1.34
2023-02-11T01:57:26.407Z,1.32
2023-02-11T01:57:41.465Z,1.29
2023-02-11T01:57:56.986Z,1.30
2023-02-11T01:58:09.000Z,1.32
2023-02-11T01:58:21.114Z,1.35
2023-02-11T01:58:38.771Z,1.38
2023-02-11T01:58:51.943Z,1.40
2023-02-11T01:59:12.671Z,1.44
2023-02-11T01:59:30.427Z,1.50
2023-02-11T01:59:56.189Z,1.47
2023-02-11T02:00:24.086Z,1.48
2023-02-11T02:00:38.813Z,1.45
2023-02-11T02:00:50.932Z,1.51
2023-02-11T02:01:06.872Z,1.55
2023-02-11T02:01:25.545Z,1.57
2023-02-11T02:01:39.444Z,1.56
2023-02-11T02:02:00.628Z,1.49
2023-02-11T02:02:15.163Z,1.55
2023-02-11T02:02:37.324Z,1.54
2023-02-11T02:02:58.662Z,1.57
2023-02-11T02:03:20.154Z,1.51
2023-02-11T02:03:36.627Z,1.57
2023-02-11T02:03:56.304Z,1.64
2023-02-11T02:04:10.230Z,1.68
2023-02-11T02:04:27.274Z,1.69
2023-02-11T02:04:46.585Z,1.67
2023-02-11T02:05:30.528Z,1.77
2023-02-11T02:05:51.778Z,1.82
2023-02-11T02:06:10.933Z,1.75
2023-02-11T02:06:29.866Z,1.79
2023-02-11T02:06:52.833Z,1.79
2023-02-11T02:07:17.185Z,1.76
2023-02-11T02:07:37.244Z,1.80
2023-02-11T02:08:07.214Z,1.85
2023-02-11T02:08:35.332Z,1.84
2023-02-11T02:08:56.497Z,1.84
2023-02-11T02:09:16.998Z,1.85
2023-02-11T02:09:33.095Z,1.86
2023-02-11T02:09:55.857Z,1.91
2023-02-11T02:10:13.917Z,1.91
2023-02-11T02:10:28.053Z,1.93
2023-02-11T02:10:46.345Z,1.94
2023-02-11T02:11:00.878Z,1.97
2023-02-11T02:11:13.024Z,1.99
2023-02-11T02:11:26.213Z,2.03
2023-02-11T02:11:38.276Z,2.06
2023-02-11T02:11:50.750Z,2.08
2023-02-11T02:12:02.761Z,2.10
2023-02-11T02:12:14.710Z,2.10
2023-02-11T02:12:26.636Z,2.14
2023-02-11T02:12:38.676Z,2.16
2023-02-11T02:12:55.230Z,2.17
2023-02-11T02:13:09.308Z,2.20
2023-02-11T02:13:21.224Z,2.21
2023-02-11T02:13:35.304Z,2.25
2023-02-11T02:13:47.268Z,2.26
2023-02-11T02:14:01.613Z,2.24
2023-02-11T02:14:13.576Z,2.17
2023-02-11T02:14:26.556Z,2.17
2023-02-11T02:14:40.431Z,2.10
2023-02-11T02:14:52.359Z,2.11
2023-02-11T02:15:31.874Z,2.05
2023-02-11T02:16:12.298Z,2.14
2023-02-11T02:16:31.460Z,2.18
2023-02-11T02:16:44.657Z,2.22
2023-02-11T02:16:56.693Z,2.27
2023-02-11T02:17:26.662Z,2.32
2023-02-11T02:17:50.938Z,2.37
2023-02-11T02:18:32.889Z,2.44
2023-02-11T02:19:03.357Z,2.49
2023-02-11T02:19:37.140Z,2.52
2023-02-11T02:20:19.663Z,2.50
2023-02-11T02:21:16.348Z,1.98
2023-02-11T02:21:46.330Z,2.06
2023-02-11T02:22:19.714Z,2.04
2023-02-11T02:22:37.341Z,1.79
2023-02-11T02:23:04.270Z,1.75
2023-02-11T02:23:26.473Z,1.72
2023-02-11T02:24:01.034Z,1.67
2023-02-11T02:24:34.498Z,1.51
2023-02-11T02:25:17.516Z,1.44
2023-02-11T02:25:44.225Z,1.59
2023-02-11T02:26:21.885Z,1.65
2023-02-11T02:26:45.756Z,1.56
2023-02-11T02:27:18.792Z,1.58
2023-02-11T02:28:14.468Z,1.61
2023-02-11T02:28:58.447Z,1.76
2023-02-11T02:29:28.677Z,1.82
2023-02-11T02:30:02.174Z,1.93
2023-02-11T02:30:28.807Z,1.98
2023-02-11T02:30:53.207Z,2.05
2023-02-11T02:31:07.986Z,2.09
2023-02-11T02:31:38.854Z,2.16
2023-02-11T02:32:12.622Z,2.18
2023-02-11T02:32:36.386Z,2.23
2023-02-11T02:33:22.523Z,2.23
2023-02-11T02:33:55.631Z,2.05
2023-02-11T02:34:20.794Z,2.04
2023-02-11T02:34:44.530Z,2.06
2023-02-11T02:35:09.576Z,1.97
2023-02-11T02:35:30.288Z,1.93
2023-02-11T02:35:59.048Z,1.91
2023-02-11T02:36:46.565Z,1.85
2023-02-11T02:37:12.140Z,1.70
2023-02-11T02:37:37.657Z,1.57
2023-02-11T02:38:11.095Z,1.52
2023-02-11T02:38:35.493Z,1.54
2023-02-11T02:38:55.578Z,1.56
2023-02-11T02:39:21.365Z,1.70
2023-02-11T02:39:36.048Z,1.68
2023-02-11T02:39:50.216Z,1.72
2023-02-11T02:40:09.096Z,1.78
2023-02-11T02:40:30.182Z,1.89
2023-02-11T02:40:57.847Z,1.99
2023-02-11T02:41:13.425Z,1.99
2023-02-11T02:41:30.461Z,2.00
2023-02-11T02:41:43.803Z,1.99
2023-02-11T02:41:56.794Z,1.99
2023-02-11T02:42:09.407Z,2.00
2023-02-11T02:42:22.301Z,1.97
2023-02-11T02:42:34.554Z,1.98
2023-02-11T02:42:47.870Z,2.05
2023-02-11T02:43:02.084Z,2.09
2023-02-11T02:43:15.654Z,2.08
2023-02-11T02:43:29.213Z,2.09
2023-02-11T02:43:45.120Z,2.11
2023-02-11T02:43:57.309Z,2.06
2023-02-11T02:44:09.389Z,2.10
2023-02-11T02:44:21.413Z,2.09
2023-02-11T02:44:33.954Z,2.07
2023-02-11T02:44:52.952Z,2.07
2023-02-11T02:45:07.219Z,2.04
2023-02-11T02:45:19.600Z,2.07
2023-02-11T02:45:32.795Z,1.98
2023-02-11T02:45:44.907Z,1.92
2023-02-11T02:46:17.724Z,2.08
2023-02-11T02:46:32.119Z,1.98
2023-02-11T02:46:44.387Z,1.91
2023-02-11T02:46:56.710Z,1.89
2023-02-11T02:47:08.703Z,1.89
2023-02-11T02:47:20.706Z,1.90
2023-02-11T02:47:35.130Z,1.96
2023-02-11T02:47:47.034Z,1.97
2023-02-11T02:47:59.016Z,1.93
2023-02-11T02:48:31.252Z,1.78
2023-02-11T02:48:43.704Z,1.79
2023-02-11T02:48:56.682Z,1.74
2023-02-11T02:49:16.206Z,1.69
2023-02-11T02:49:28.155Z,1.70
2023-02-11T02:49:40.054Z,1.68
2023-02-11T02:49:52.032Z,1.69
2023-02-11T02:50:06.550Z,1.71
2023-02-11T02:50:25.186Z,1.74
2023-02-11T02:50:37.968Z,1.76
2023-02-11T02:50:57.263Z,1.74
2023-02-11T02:51:27.243Z,1.69
2023-02-11T02:52:10.192Z,1.82
2023-02-11T02:52:55.286Z,1.95
2023-02-11T02:53:36.399Z,1.98
2023-02-11T02:54:18.945Z,1.94
2023-02-11T02:54:53.582Z,1.98
2023-02-11T02:55:39.357Z,1.88
2023-02-11T02:56:07.552Z,1.87
2023-02-11T02:56:45.908Z,1.87
2023-02-11T02:57:20.601Z,1.81
2023-02-11T02:57:37.137Z,1.83
2023-02-11T02:57:58.661Z,1.86
2023-02-11T02:58:19.243Z,1.89
2023-02-11T02:58:46.981Z,1.93
2023-02-11T02:59:20.217Z,1.93
2023-02-11T03:00:08.705Z,1.83
2023-02-11T03:00:32.663Z,1.86
2023-02-11T03:00:58.461Z,1.84
2023-02-11T03:01:40.342Z,1.91
2023-02-11T03:02:10.910Z,1.82
2023-02-11T03:02:32.006Z,1.83
2023-02-11T03:02:49.996Z,1.86
2023-02-11T03:03:10.088Z,1.95
2023-02-11T03:03:49.334Z,1.85
2023-02-11T03:04:04.308Z,1.96
2023-02-11T03:04:29.376Z,1.95
2023-02-11T03:04:55.044Z,1.93
2023-02-11T03:05:18.654Z,1.86
2023-02-11T03:05:52.427Z,1.80
2023-02-11T03:06:42.343Z,1.92
2023-02-11T03:07:23.388Z,1.90
2023-02-11T03:07:47.054Z,1.99
2023-02-11T03:08:08.378Z,2.07
2023-02-11T03:08:38.206Z,2.06
2023-02-11T03:09:11.388Z,1.99
2023-02-11T03:09:27.568Z,2.02
2023-02-11T03:09:52.963Z,1.96
2023-02-11T03:10:10.898Z,1.89
2023-02-11T03:10:30.289Z,1.93
2023-02-11T03:10:45.699Z,1.87
2023-02-11T03:11:00.524Z,1.90
2023-02-11T03:11:17.494Z,1.89
2023-02-11T03:11:29.722Z,1.93
2023-02-11T03:11:41.732Z,1.94
2023-02-11T03:11:53.949Z,1.93
2023-02-11T03:12:07.699Z,1.96
2023-02-11T03:12:21.778Z,1.95
2023-02-11T03:12:36.302Z,1.97
2023-02-11T03:12:49.554Z,2.04
2023-02-11T03:13:03.492Z,2.04
2023-02-11T03:13:17.975Z,2.03
2023-02-11T03:13:33.879Z,1.99
2023-02-11T03:13:48.423Z,1.93
2023-02-11T03:14:03.367Z,1.98
2023-02-11T03:14:18.713Z,2.03
2023-02-11T03:14:32.259Z,1.96
2023-02-11T03:14:45.309Z,2.04
2023-02-11T03:14:59.265Z,2.06
2023-02-11T03:15:13.130Z,2.06
2023-02-11T03:15:28.041Z,2.06
2023-02-11T03:15:45.565Z,2.05
2023-02-11T03:16:03.375Z,2.09
2023-02-11T03:16:21.054Z,2.02
2023-02-11T03:16:38.971Z,2.04
2023-02-11T03:16:52.146Z,1.89
2023-02-11T03:17:06.017Z,1.96
2023-02-11T03:17:19.162Z,1.98
2023-02-11T03:17:34.172Z,2.05
2023-02-11T03:17:48.642Z,2.09
2023-02-11T03:18:03.561Z,2.07
2023-02-11T03:18:18.881Z,2.10
2023-02-11T03:18:35.935Z,2.08
2023-02-11T03:18:55.683Z,2.05
2023-02-11T03:19:15.481Z,1.95
2023-02-11T03:19:34.383Z,2.02
2023-02-11T03:19:50.541Z,2.05
2023-02-11T03:20:06.791Z,2.11
2023-02-11T03:20:22.013Z,2.15
2023-02-11T03:20:37.097Z,2.17
2023-02-11T03:20:53.244Z,2.18
2023-02-11T03:21:08.178Z,2.19
2023-02-11T03:21:21.430Z,2.19
2023-02-11T03:21:36.501Z,2.14
2023-02-11T03:21:51.827Z,2.10
2023-02-11T03:22:09.699Z,2.15
2023-02-11T03:22:34.103Z,2.10
2023-02-11T03:22:48.667Z,2.15
2023-02-11T03:23:35.672Z,2.09
2023-02-11T03:23:56.289Z,2.12
2023-02-11T03:24:17.245Z,2.07
2023-02-11T03:24:35.584Z,2.12
2023-02-11T03:24:48.944Z,2.20
2023-02-11T03:25:02.735Z,2.25
2023-02-11T03:25:15.386Z,2.21
2023-02-11T03:25:33.418Z,2.18
2023-02-11T03:26:12.269Z,2.20
2023-02-11T03:26:54.701Z,2.36
2023-02-11T03:27:21.547Z,2.37
2023-02-11T03:27:41.250Z,2.39
2023-02-11T03:28:03.126Z,2.31
2023-02-11T03:28:32.453Z,2.35
2023-02-11T03:29:06.514Z,2.30
2023-02-11T03:29:45.913Z,2.30